Historyczne dane pomiarowe

Dodano dane terminowe – wersja testowa.

Dane z okresu 1951-2019

Wersja bazy: 1.34 [2019-03-16, lista zmian], aktualizacja planowana na 2019-04-15

Dane meteo z obszaru Polski uzyskane na podstawie danych udostępnionych przez Instytut Meteorologii i Gospodarki Wodnej – Państwowy Instytut Badawczy.

 

Wybierz Datę:    

       

TemperaturaWilgotnośćWiatrCiśnienieOpadyŚniegCzas trwania zjawisk
 Stacja t tx tn tng RH VA  wxwx mslp ppp RRR   cm mm wxwxwxwxwxwxwx
1994-08-14 12.8 17.7 10.0 9.2-- 6.3 8.3---- 3.8------------
1994-08-13 16.1 21.7 13.5 14.3-- 7.7 4.0---- 0.5------------
1994-08-12 18.4 22.1 15.5 14.8-- 6.7 0.7---- 0.0------------
1994-08-11 20.0 28.4 15.6 11.7-- 5.0 2.7---- 5.7------------
1994-08-10 20.5 28.1 11.7 9.9-- 5.3 1.3---- 0.0------------
1994-08-09 20.3 23.5 17.0 15.3-- 6.3 2.0---- 0.0------------
1994-08-08 21.6 26.2 17.5 16.8-- 5.3 0.7---- 0.0------------
1994-08-07 22.4 28.1 17.2 16.0-- 6.3 0.0---- 2.2------------
1994-08-06 25.5 32.6 17.5 14.0-- 3.7 1.7---- 0.0------------
1994-08-05 25.6 33.1 16.3 13.6-- 1.3 0.7---- 0.0------------
1994-08-04 23.5 28.4 15.5 12.2-- 2.3 1.7---- 0.0------------
1994-08-03 24.6 28.7 18.8 18.6-- 2.7 3.0---- 0.0------------
1994-08-02 27.6 33.6 21.2 19.9-- 4.3 1.3---- 0.0------------
1994-08-01 27.8 35.9 17.5 14.8-- 4.7 2.0---- 0.0------------
1994-07-31 28.1 36.9 17.2 14.8-- 3.3 1.3---- 0.0------------
1994-07-30 27.1 37.9 15.6 13.4-- 1.3 1.3---- 0.0------------
1994-07-29 27.1 36.3 14.7 12.7-- 0.7 0.7---- 0.0------------
1994-07-28 26.3 35.6 14.5 12.1-- 2.7 0.7---- 0.0------------
1994-07-27 26.2 35.2 14.3 12.2-- 3.7 0.0---- 0.0------------
1994-07-26 26.6 35.3 15.0 11.3-- 1.7 0.7---- 0.0------------
1994-07-25 25.6 33.1 14.2 10.7-- 3.0 1.3---- 0.0------------
1994-07-24 23.7 31.3 12.2 10.3-- 0.0 1.3---- 0.0------------
1994-07-23 23.2 30.7 12.5 9.3-- 0.7 1.3---- 0.0------------
1994-07-22 21.4 28.2 12.5 9.7-- 1.7 1.3---- 0.0------------
1994-07-21 21.1 28.4 10.0 6.8-- 0.0 0.7---- 0.0------------
1994-07-20 19.5 25.1 11.0 9.4-- 0.7 1.3---- 0.0------------
1994-07-19 18.7 23.9 11.8 10.2-- 4.0 2.7---- 0.0------------
1994-07-18 20.6 25.4 14.7 14.3-- 2.7 2.3---- 0.0------------
1994-07-17 23.2 28.4 16.8 14.8-- 5.7 1.3---- 1.1------------
1994-07-16 22.6 27.6 17.0 15.6-- 6.3 1.3---- 0.2------------
1994-07-15 24.4 31.4 15.7 14.1-- 5.3 0.7---- 0.0------------
1994-07-14 23.9 31.5 14.3 12.2-- 5.0 1.3---- 0.0------------
1994-07-13 24.0 30.0 15.3 12.4-- 2.0 2.3---- 0.0------------
1994-07-12 23.4 28.1 15.5 14.3-- 1.3 2.0---- 0.0------------
1994-07-11 22.2 28.3 14.7 11.7-- 2.3 2.0---- 0.0------------
1994-07-10 19.5 26.2 12.3 11.2-- 3.3 1.3---- 0.0------------
1994-07-09 16.0 22.5 12.5 12.2-- 5.3 2.3---- 0.0------------
1994-07-08 13.8 23.6 12.5 13.3-- 8.0 2.7---- 20.0------------
1994-07-07 19.8 26.9 11.2 7.3-- 5.0 1.3---- 14.7------------
1994-07-06 19.4 24.7 12.5 10.0-- 4.3 2.0---- 0.0------------
1994-07-05 19.8 26.9 11.5 11.1-- 4.7 2.3---- 0.0------------
1994-07-04 21.2 27.7 11.5 8.3-- 1.7 2.0---- 0.0------------
1994-07-03 20.2 25.7 10.2 7.2-- 0.7 2.3---- 0.0------------
1994-07-02 19.1 24.7 9.2 6.5-- 0.0 2.3---- 0.0------------
1994-07-01 18.5 23.3 8.7 6.6-- 2.7 2.0---- 0.0------------
1994-06-30 19.8 28.1 16.7 15.8-- 5.7 3.0---- 0.0------------
1994-06-29 25.0 32.9 15.7 13.8-- 1.7 0.7---- 6.4------------
1994-06-28 23.7 30.4 15.8 12.7-- 0.0 1.7---- 0.0------------
1994-06-27 23.1 30.2 14.6 11.2-- 2.0 0.7---- 0.0------------
1994-06-26 20.7 30.0 9.5 4.5-- 2.0 2.0---- 0.0------------
1994-06-25 16.5 24.4 4.3 0.2-- 0.0 0.7---- 0.0------------
1994-06-24 13.2 19.8 4.5 0.6-- 2.3 4.0---- 0.0------------
1994-06-23 15.5 20.8 10.2 7.4-- 1.3 11.7---- 0.0------------
1994-06-22 19.4 25.1 13.3 9.2-- 6.3 5.3---- 0.0------------
1994-06-21 15.8 22.1 6.0 2.9-- 0.7 0.0---- 0.0------------
1994-06-20 16.2 19.6 13.6 11.7-- 2.3 5.3---- 0.0------------
1994-06-19 15.5 21.9 11.5 10.1-- 7.3 4.0---- 0.0------------
1994-06-18 11.9 17.8 3.5 1.2-- 5.0 2.3---- 6.5------------
1994-06-17 10.4 14.9 6.2 5.0-- 5.0 3.3---- 0.0------------
1994-06-16 10.9 15.3 9.0 4.9-- 7.3 3.3---- 7.5------------
287.0 ms

 

Źródłem pochodzenia danych jest Instytut Meteorologii i Gospodarki Wodnej – Państwowy Instytut Badawczy. Dane Instytutu Meteorologii i Gospodarki Wodnej – Państwowego Instytutu Badawczego zostały przetworzone.

Dane źródłowe można odnaleźć na stronie https://dane.imgw.pl